Airport Name : Eareckson As

Other Name : Eareckson As

ICAO : PASY

IATA : SYA

FAA : PSYA

Latitude : 52.712275

Longitude : 174.11362

Country : United States

Local Date and Time : 8/21/2018 8:46:00 PM

 

TAF (Terminal Aerodrome Forecast)

TAF AMD PASY 220230Z 2202/2304 25020G25KT 9999 BKN007 OVC040 600605 QNH2937INS TEMPO 2202/2204 BKN015 BECMG 2208/2209 27012G18KT 8000 -SHRA BR OVC015 610605 QNH2945INS TX11/2223Z TN09/2214Z LIMITED METWATCH 2202 TIL 2206

 

METAR (METeorological Aerodrome Report)

PASY 220538Z AUTO 24021KT M M OVC002 10/09 A2945 RMK AO2 SLP976 $

PASY 220458Z AUTO 24020KT M M OVC003 10/09 A2945

PASY 220358Z AUTO 24021G27KT M M OVC004 10/09 A2944

PASY 220318Z AUTO 24023KT M M OVC004 10/09 A2943 RMK AO2 SLP969 $

PASY 220258Z AUTO 24024KT M M OVC006 10/09 A2943

PASY 220248Z AUTO 24022G28KT M M BKN005 OVC012 10/09 A2943

PASY 220228Z AUTO 24025G30KT M M SCT006 OVC010 10/09 A2943 RMK AO2 CIG 007V010 SLP969 PWINO $

PASY 220218Z AUTO 23019G25KT M M BKN007 OVC017 10/09 A2944 RMK AO2 SLP973 PWINO $

PASY 220208Z AUTO 24023G27KT M M BKN009 BKN016 10/09 A2944 RMK AO2 CIG 009V016 BKN009 V SCT SLP973 PWINO $

PASY 220158Z AUTO 24024G31KT M M SCT009 BKN016 OVC030 10/09 A2944

PASY 220148Z AUTO 24026KT M M SCT009 BKN016 BKN029 11/09 A2944